Time;durP1;ratioP1;P1;durP2;ratioP2;P2;SDS_P1;SDS_P2;PMS_P1;PMS_P2;Temp;Humidity;BMP_temperature;BMP_pressure;BME280_temperature;BME280_humidity;BME280_pressure;Samples;Min_cycle;Max_cycle;Signal;HPM_P1;HPM_P2
2022/01/24 00:00:07;;;;;;;6.10;3.90;;;;;;;-145.06;0.00;60892.56;4852560;28;20037;-89
2022/01/24 00:02:46;;;;;;;5.38;3.80;;;;;;;-145.06;0.00;60892.56;4841730;28;20029;-90
2022/01/24 00:05:25;;;;;;;3.90;2.95;;;;;;;-145.06;0.00;60892.56;4844720;28;20073;-89
2022/01/24 00:08:04;;;;;;;4.90;3.33;;;;;;;-145.06;0.00;60892.56;4870111;28;20474;-89
2022/01/24 00:10:46;;;;;;;4.83;3.30;;;;;;;-145.06;0.00;60892.56;4856346;28;20068;-88
2022/01/24 00:28:28;;;;;;;6.78;3.83;;;;;;;6.79;0.00;60892.56;4851793;28;20033;-90
2022/01/24 00:31:07;;;;;;;5.20;3.47;;;;;;;-145.06;0.00;60892.56;4859139;28;20200;-89
2022/01/24 00:33:46;;;;;;;4.65;3.10;;;;;;;-145.06;0.00;60892.56;4855048;28;20420;-89
2022/01/24 00:36:25;;;;;;;3.35;2.60;;;;;;;-145.06;0.00;60892.56;4855718;28;20030;-89
2022/01/24 00:39:05;;;;;;;4.47;3.27;;;;;;;-145.06;0.00;60892.56;4855274;28;20033;-89
2022/01/24 00:42:17;;;;;;;;;;;;;;;;;;;;;
2022/01/24 00:44:51;;;;;;;3.58;2.67;;;;;;;-145.06;0.00;60892.56;4849811;28;20026;-89
2022/01/24 00:47:47;;;;;;;3.53;2.58;;;;;;;-145.06;0.00;60892.56;4842494;28;20030;-88
2022/01/24 00:54:00;;;;;;;3.67;2.40;;;;;;;-145.06;0.00;60892.56;4855585;28;20069;-89
2022/01/24 00:56:38;;;;;;;4.50;2.95;;;;;;;-145.06;0.00;60892.56;4853162;28;20724;-88
2022/01/24 00:59:17;;;;;;;5.43;2.90;;;;;;;-145.06;0.00;60892.56;4869651;28;20088;-88
2022/01/24 01:01:56;;;;;;;5.03;2.92;;;;;;;-145.06;0.00;60892.56;4854711;28;20030;-88
2022/01/24 01:05:32;;;;;;;3.70;2.53;;;;;;;-145.06;0.00;60892.56;4867181;28;20399;-90
2022/01/24 01:07:41;;;;;;;2.42;2.03;;;;;;;-145.06;0.00;60892.56;4852063;28;20045;-88
2022/01/24 01:19:16;;;;;;;2.83;2.08;;;;;;;-145.06;0.00;60892.56;4854984;28;20037;-89
2022/01/24 01:21:55;;;;;;;3.05;2.10;;;;;;;-145.06;0.00;60892.56;4853753;28;20393;-89
2022/01/24 01:24:40;;;;;;;3.00;2.10;;;;;;;-145.06;0.00;60892.56;4854965;28;20041;-89
2022/01/24 01:27:28;;;;;;;2.97;2.08;;;;;;;-145.06;0.00;60892.56;4853858;28;20033;-88
2022/01/24 01:30:15;;;;;;;2.95;2.17;;;;;;;-145.06;0.00;60892.56;4850298;28;20041;-88
2022/01/24 01:33:02;;;;;;;3.15;2.20;;;;;;;5.51;0.00;60892.56;4861568;28;20132;-89
2022/01/24 01:36:10;;;;;;;2.85;2.08;;;;;;;-145.06;0.00;60892.56;4852962;28;20380;-88
2022/01/24 01:56:18;;;;;;;1.77;1.55;;;;;;;-145.06;0.00;60892.56;4849564;28;20029;-89
2022/01/24 01:58:57;;;;;;;3.60;2.23;;;;;;;-145.06;0.00;60892.56;4852205;28;20384;-89
2022/01/24 02:01:36;;;;;;;2.57;1.90;;;;;;;-145.06;0.00;60892.56;4854438;28;20033;-90
2022/01/24 02:04:15;;;;;;;2.53;2.00;;;;;;;5.14;0.00;60892.56;4852416;28;20268;-88
2022/01/24 02:06:54;;;;;;;3.63;2.05;;;;;;;-145.06;0.00;60892.56;4853912;28;20479;-88
2022/01/24 02:09:34;;;;;;;2.97;2.30;;;;;;;21.08;0.00;60892.56;4852724;28;20041;-89
2022/01/24 02:12:14;;;;;;;2.88;2.10;;;;;;;-145.06;0.00;60892.56;4853554;28;20379;-90
2022/01/24 02:14:58;;;;;;;3.70;2.22;;;;;;;-145.06;0.00;60892.56;4853748;28;20042;-88
2022/01/24 02:26:11;;;;;;;3.08;2.20;;;;;;;-145.06;0.00;60892.56;4854585;28;20034;-89
2022/01/24 02:31:51;;;;;;;3.10;1.98;;;;;;;-145.06;0.00;60892.56;4854273;28;20025;-88
2022/01/24 02:34:35;;;;;;;3.13;2.05;;;;;;;-145.06;0.00;60892.56;4852991;28;20478;-89
2022/01/24 02:37:19;;;;;;;3.35;2.17;;;;;;;-145.06;0.00;60892.56;4856504;28;20084;-90
2022/01/24 02:40:03;;;;;;;2.67;1.90;;;;;;;-145.06;0.00;60892.56;4857829;28;20033;-89
2022/01/24 02:48:38;;;;;;;2.20;1.50;;;;;;;-145.06;0.00;60892.56;4864099;28;20119;-89
2022/01/24 02:51:31;;;;;;;2.30;1.50;;;;;;;-145.06;0.00;60892.56;4859640;28;20116;-89
2022/01/24 02:54:20;;;;;;;2.60;1.80;;;;;;;-145.06;0.00;60892.56;4850512;28;20033;-89
2022/01/24 02:57:00;;;;;;;2.67;1.65;;;;;;;-145.06;0.00;60892.56;4859075;28;20033;-89
2022/01/24 02:59:39;;;;;;;2.67;1.65;;;;;;;-145.06;0.00;60892.56;4871828;28;20037;-89
2022/01/24 03:02:18;;;;;;;3.03;1.93;;;;;;;-145.06;0.00;60892.56;4855084;28;20360;-88
2022/01/24 03:04:57;;;;;;;2.42;1.70;;;;;;;-145.06;0.00;60892.56;4856951;28;20021;-89
2022/01/24 03:07:36;;;;;;;2.40;1.77;;;;;;;5.49;0.00;60892.56;4872009;28;20037;-88
2022/01/24 03:10:25;;;;;;;2.03;1.67;;;;;;;-145.06;0.00;60892.56;4857495;28;20033;-89
2022/01/24 03:15:58;;;;;;;1.80;1.50;;;;;;;-145.06;0.00;60892.56;4855487;28;20356;-89
2022/01/24 03:18:38;;;;;;;2.13;1.55;;;;;;;-145.06;0.00;60892.56;4857952;28;20033;-89
2022/01/24 03:21:19;;;;;;;2.58;1.85;;;;;;;-145.06;0.00;60892.56;4860955;28;20503;-90
2022/01/24 03:23:58;;;;;;;2.50;1.63;;;;;;;-145.06;0.00;60892.56;4853782;28;20120;-89
2022/01/24 03:26:37;;;;;;;2.73;1.57;;;;;;;-145.06;0.00;60892.56;4855909;28;20033;-89
2022/01/24 03:29:17;;;;;;;1.85;1.27;;;;;;;-145.06;0.00;60892.56;4862413;28;20034;-88
2022/01/24 03:31:55;;;;;;;1.77;1.30;;;;;;;-145.06;0.00;60892.56;4856995;28;20061;-89
2022/01/24 03:34:34;;;;;;;3.03;1.90;;;;;;;4.07;0.00;60892.56;4857229;28;20030;-89
2022/01/24 03:37:13;;;;;;;2.03;1.60;;;;;;;4.19;0.00;60892.56;4858568;28;20041;-89
2022/01/24 03:39:52;;;;;;;2.47;1.75;;;;;;;4.19;0.00;60892.56;4856724;28;20268;-89
2022/01/24 03:42:32;;;;;;;2.35;1.75;;;;;;;4.19;0.00;60892.56;4856657;28;20057;-89
2022/01/24 03:45:12;;;;;;;2.53;1.77;;;;;;;-145.06;0.00;60892.56;4852859;28;20069;-90
2022/01/24 03:51:03;;;;;;;3.85;2.10;;;;;;;-145.06;0.00;60892.56;4872219;28;20041;-88
2022/01/24 03:53:44;;;;;;;2.20;1.55;;;;;;;-145.06;0.00;60892.56;4856147;28;20045;-88
2022/01/24 03:56:23;;;;;;;3.03;2.08;;;;;;;4.19;0.00;60892.56;4855325;28;20029;-89
2022/01/24 03:59:02;;;;;;;2.40;1.50;;;;;;;-145.06;0.00;60892.56;4853903;28;20045;-89
2022/01/24 04:01:41;;;;;;;2.95;1.92;;;;;;;3.54;0.00;60892.56;4857452;28;20528;-89
2022/01/24 04:04:20;;;;;;;2.67;1.83;;;;;;;-145.06;0.00;60892.56;4855401;28;20041;-89
2022/01/24 04:06:59;;;;;;;2.35;1.80;;;;;;;3.47;0.00;60892.56;4851434;28;20276;-89
2022/01/24 04:09:41;;;;;;;2.95;2.10;;;;;;;-145.06;0.00;60892.56;4856539;28;20041;-89
2022/01/24 04:12:24;;;;;;;2.65;1.85;;;;;;;-145.06;0.00;60892.56;4856073;28;20021;-89
2022/01/24 04:17:47;;;;;;;2.75;1.77;;;;;;;-145.06;0.00;60892.56;4857607;28;20025;-89
2022/01/24 04:23:24;;;;;;;2.67;1.70;;;;;;;3.54;0.00;60892.56;4859649;28;19913;-89
2022/01/24 04:26:03;;;;;;;2.58;1.45;;;;;;;-145.06;0.00;60892.56;4851713;28;20033;-89
2022/01/24 04:28:42;;;;;;;2.88;1.48;;;;;;;-145.06;0.00;60892.56;4857327;28;20049;-89
2022/01/24 04:31:22;;;;;;;1.90;1.50;;;;;;;-145.06;0.00;60892.56;4854995;28;20475;-90
2022/01/24 04:34:02;;;;;;;2.42;1.60;;;;;;;-145.06;0.00;60892.56;4854862;28;20033;-89
2022/01/24 04:36:41;;;;;;;;;;;;;;;2.83;0.00;60892.56;4853021;28;20030;-89
2022/01/24 04:39:21;;;;;;;1.97;1.47;;;;;;;-145.06;0.00;60892.56;4855230;28;19957;-89
2022/01/24 04:42:08;;;;;;;3.17;1.50;;;;;;;-145.06;0.00;60892.56;4870239;28;20299;-90
2022/01/24 04:45:22;;;;;;;2.58;1.88;;;;;;;187.52;0.00;60892.56;4857061;28;20112;-89
2022/01/24 04:51:10;;;;;;;2.50;1.60;;;;;;;-145.06;0.00;60892.56;4860365;28;20033;-89
2022/01/24 04:56:43;;;;;;;4.10;2.33;;;;;;;-145.06;0.00;60892.56;4853331;28;20033;-90
2022/01/24 04:59:23;;;;;;;4.68;2.63;;;;;;;-145.06;0.00;60892.56;4855138;28;20404;-90
2022/01/24 05:02:03;;;;;;;4.05;2.55;;;;;;;-145.06;0.00;60892.56;4853760;28;20045;-89
2022/01/24 05:04:42;;;;;;;;;;;;;;;-145.06;0.00;60892.56;4855809;28;20116;-90
2022/01/24 05:07:21;;;;;;;2.77;1.97;;;;;;;-145.06;0.00;60892.56;4855213;28;20016;-90
2022/01/24 05:10:12;;;;;;;5.93;2.80;;;;;;;-145.06;0.00;60892.56;4851851;28;20360;-90
2022/01/24 05:24:11;;;;;;;6.32;2.97;;;;;;;-145.06;0.00;60892.56;4851878;28;20487;-89
2022/01/24 05:26:50;;;;;;;4.53;2.63;;;;;;;21.08;0.00;60892.56;4852213;28;20033;-90
2022/01/24 05:29:29;;;;;;;5.17;3.07;;;;;;;-145.06;0.00;60892.56;4855816;28;20510;-89
2022/01/24 05:32:08;;;;;;;4.47;2.67;;;;;;;-145.06;0.00;60892.56;4854758;28;20380;-88
2022/01/24 05:34:47;;;;;;;4.47;2.63;;;;;;;-145.06;0.00;60892.56;4854851;28;20226;-90
2022/01/24 05:37:26;;;;;;;4.18;2.33;;;;;;;-145.06;0.00;60892.56;4854788;28;20034;-90
2022/01/24 05:40:06;;;;;;;3.35;2.25;;;;;;;-145.06;0.00;60892.56;4857936;28;20037;-89
2022/01/24 05:42:45;;;;;;;;;;;;;;;-145.06;0.00;60892.56;4867297;28;20029;-90
2022/01/24 05:45:24;;;;;;;2.53;1.77;;;;;;;-145.06;0.00;60892.56;4854443;28;19921;-89
2022/01/24 05:48:04;;;;;;;2.70;1.73;;;;;;;-145.06;0.00;60892.56;4852813;28;20213;-89
2022/01/24 05:50:43;;;;;;;2.83;2.15;;;;;;;-145.06;0.00;60892.56;4852731;28;20029;-90
2022/01/24 05:53:22;;;;;;;3.33;2.10;;;;;;;-145.06;0.00;60892.56;4868446;28;20042;-89
2022/01/24 05:56:01;;;;;;;3.57;2.10;;;;;;;-145.06;0.00;60892.56;4868216;28;20029;-88
2022/01/24 05:58:40;;;;;;;2.57;1.90;;;;;;;-145.06;0.00;60892.56;4856090;28;20025;-90
2022/01/24 06:01:19;;;;;;;3.00;2.08;;;;;;;-145.06;0.00;60892.56;4853289;28;20264;-89
2022/01/24 06:03:57;;;;;;;2.67;1.88;;;;;;;10.68;0.00;60892.56;4854845;28;20030;-88
2022/01/24 06:06:37;;;;;;;2.80;2.03;;;;;;;-145.06;0.00;60892.56;4877965;28;20041;-89
2022/01/24 06:09:16;;;;;;;2.58;1.83;;;;;;;-145.06;0.00;60892.56;4859046;28;20038;-90
2022/01/24 06:11:55;;;;;;;2.15;1.67;;;;;;;-145.06;0.00;60892.56;4849295;28;20384;-89
2022/01/24 06:14:34;;;;;;;2.88;1.98;;;;;;;-145.06;0.00;60892.56;4852533;28;20594;-88
2022/01/24 06:17:15;;;;;;;3.00;2.13;;;;;;;-145.06;0.00;60892.56;4868606;28;20061;-87
2022/01/24 06:19:54;;;;;;;2.42;1.58;;;;;;;-145.06;0.00;60892.56;4851207;28;20538;-90
2022/01/24 06:22:35;;;;;;;2.35;1.90;;;;;;;-145.06;0.00;60892.56;4870190;28;20030;-88
2022/01/24 06:25:20;;;;;;;2.45;1.75;;;;;;;-145.06;0.00;60892.56;4855143;28;20045;-89
2022/01/24 06:27:59;;;;;;;2.42;1.60;;;;;;;-145.06;0.00;60892.56;4857415;28;20037;-89
2022/01/24 06:30:38;;;;;;;2.73;1.97;;;;;;;-145.06;0.00;60892.56;4851699;28;20037;-89
2022/01/24 06:33:17;;;;;;;2.77;1.80;;;;;;;187.52;0.00;60892.56;4855676;28;20037;-89
2022/01/24 06:35:56;;;;;;;2.60;1.80;;;;;;;-145.06;0.00;60892.56;4855169;28;20046;-88
2022/01/24 06:38:35;;;;;;;2.13;1.73;;;;;;;-145.06;0.00;60892.56;4856367;28;20303;-88
2022/01/24 06:41:20;;;;;;;2.30;1.67;;;;;;;-145.06;0.00;60892.56;4856609;28;20610;-89
2022/01/24 06:44:01;;;;;;;2.30;1.80;;;;;;;-145.06;0.00;60892.56;4864440;28;20033;-89
2022/01/24 06:46:40;;;;;;;3.75;2.38;;;;;;;-145.06;0.00;60892.56;4871092;28;20033;-89
2022/01/24 06:49:19;;;;;;;2.30;1.70;;;;;;;-145.06;0.00;60892.56;4855265;28;20029;-88
2022/01/24 06:51:58;;;;;;;2.33;1.80;;;;;;;-145.06;0.00;60892.56;4855543;28;20037;-89
2022/01/24 06:54:39;;;;;;;2.53;1.80;;;;;;;-145.06;0.00;60892.56;4849889;28;20117;-89
2022/01/24 06:57:18;;;;;;;3.15;2.00;;;;;;;-145.06;0.00;60892.56;4871825;28;20029;-89
2022/01/24 06:59:57;;;;;;;3.20;2.33;;;;;;;-145.06;0.00;60892.56;4858976;28;20411;-88
2022/01/24 07:02:37;;;;;;;4.63;2.15;;;;;;;-145.06;0.00;60892.56;4854079;28;20037;-90
2022/01/24 07:05:16;;;;;;;3.08;2.00;;;;;;;-145.06;0.00;60892.56;4854112;28;20037;-90
2022/01/24 07:07:57;;;;;;;2.95;2.03;;;;;;;-145.06;0.00;60892.56;4853089;28;20061;-89
2022/01/24 07:10:36;;;;;;;4.13;2.45;;;;;;;-145.06;0.00;60892.56;4868615;28;20360;-89
2022/01/24 07:13:15;;;;;;;3.67;2.17;;;;;;;-145.06;0.00;60892.56;4853353;28;20112;-90
2022/01/24 07:16:01;;;;;;;3.67;2.40;;;;;;;-145.06;0.00;60892.56;4857739;28;20272;-90
2022/01/24 07:18:58;;;;;;;3.28;2.22;;;;;;;-145.06;0.00;60892.56;4857945;28;20037;-89
2022/01/24 07:21:37;;;;;;;2.60;1.58;;;;;;;-145.06;0.00;60892.56;4857704;28;20030;-90
2022/01/24 07:24:16;;;;;;;3.13;2.10;;;;;;;-145.06;0.00;60892.56;4856775;28;20061;-89
2022/01/24 07:26:55;;;;;;;2.30;1.83;;;;;;;-145.06;0.00;60892.56;4858950;28;20025;-90
2022/01/24 07:29:34;;;;;;;2.43;1.87;;;;;;;-145.06;0.00;60892.56;4856784;28;20029;-89
2022/01/24 07:32:13;;;;;;;2.35;1.73;;;;;;;-145.06;0.00;60892.56;4854987;28;20762;-91
2022/01/24 07:34:54;;;;;;;3.33;1.75;;;;;;;-145.06;0.00;60892.56;4844773;28;20041;-90
2022/01/24 07:37:33;;;;;;;2.40;1.70;;;;;;;-145.06;0.00;60892.56;4865506;28;20033;-90
2022/01/24 07:40:13;;;;;;;3.47;2.13;;;;;;;-145.06;0.00;60892.56;4857266;28;20033;-88
2022/01/24 07:45:31;;;;;;;2.70;1.88;;;;;;;-145.06;0.00;60892.56;4854222;28;20041;-90
2022/01/24 07:48:11;;;;;;;2.88;1.92;;;;;;;-145.06;0.00;60892.56;4857837;28;20029;-90
2022/01/24 07:50:52;;;;;;;3.00;1.90;;;;;;;-145.06;0.00;60892.56;4856804;28;20029;-89
2022/01/24 07:53:31;;;;;;;2.10;1.58;;;;;;;-145.06;0.00;60892.56;4856645;28;20029;-90
2022/01/24 07:56:11;;;;;;;2.83;1.77;;;;;;;-145.06;0.00;60892.56;4856623;28;20045;-89
2022/01/24 07:58:50;;;;;;;2.40;1.92;;;;;;;-145.06;0.00;60892.56;4852577;28;20056;-90
2022/01/24 08:01:29;;;;;;;3.83;2.10;;;;;;;-145.06;0.00;60892.56;4858186;28;20380;-89
2022/01/24 08:04:09;;;;;;;3.27;2.00;;;;;;;-145.06;0.00;60892.56;4856818;28;20033;-89
2022/01/24 08:06:49;;;;;;;2.80;2.03;;;;;;;-145.06;0.00;60892.56;4864853;28;20025;-90
2022/01/24 08:09:28;;;;;;;3.50;2.00;;;;;;;-145.06;0.00;60892.56;4871315;28;20017;-89
2022/01/24 08:12:08;;;;;;;3.78;2.17;;;;;;;-145.06;0.00;60892.56;4851710;28;20030;-90
2022/01/24 08:14:47;;;;;;;3.50;2.10;;;;;;;-145.06;0.00;60892.56;4856814;28;20057;-90
2022/01/24 08:17:26;;;;;;;2.85;2.20;;;;;;;-145.06;0.00;60892.56;4869998;28;20029;-90
2022/01/24 08:20:06;;;;;;;2.17;1.67;;;;;;;-145.06;0.00;60892.56;4860101;28;20475;-89
2022/01/24 08:22:45;;;;;;;2.63;1.80;;;;;;;-145.06;0.00;60892.56;4856330;28;20033;-88
2022/01/24 08:25:26;;;;;;;3.03;2.20;;;;;;;-145.06;0.00;60892.56;4848839;28;20479;-89
2022/01/24 08:28:05;;;;;;;3.17;2.22;;;;;;;-145.06;0.00;60892.56;4856443;28;20471;-90
2022/01/24 08:30:45;;;;;;;3.07;2.20;;;;;;;-145.06;0.00;60892.56;4856002;28;20037;-89
2022/01/24 08:33:23;;;;;;;;;;;;;;;-145.06;0.00;60892.56;4856358;28;20265;-90
2022/01/24 08:36:03;;;;;;;2.83;2.00;;;;;;;-145.06;0.00;60892.56;4870245;28;19955;-89
2022/01/24 08:38:46;;;;;;;2.88;2.20;;;;;;;-145.06;0.00;60892.56;4863511;28;20037;-89
2022/01/24 08:41:37;;;;;;;2.97;1.98;;;;;;;-145.06;0.00;60892.56;4846855;28;20029;-90
2022/01/24 08:44:32;;;;;;;2.88;1.83;;;;;;;-145.06;0.00;60892.56;4855019;28;20037;-89
2022/01/24 08:47:11;;;;;;;2.70;2.00;;;;;;;-145.06;0.00;60892.56;4860742;28;20120;-90
2022/01/24 08:49:51;;;;;;;2.83;2.10;;;;;;;-145.06;0.00;60892.56;4856464;28;20037;-88
2022/01/24 08:52:32;;;;;;;3.75;2.17;;;;;;;-145.06;0.00;60892.56;4855688;28;20026;-90
2022/01/24 08:55:11;;;;;;;3.55;2.38;;;;;;;-145.06;0.00;60892.56;4855454;28;20033;-90
2022/01/24 08:57:50;;;;;;;2.63;2.13;;;;;;;-145.06;0.00;60892.56;4843121;28;20479;-89
2022/01/24 09:00:29;;;;;;;4.73;2.67;;;;;;;-145.06;0.00;60892.56;4857438;28;20041;-90
2022/01/24 09:03:09;;;;;;;3.20;2.10;;;;;;;-145.06;0.00;60892.56;4857440;28;20112;-90
2022/01/24 09:05:49;;;;;;;3.17;2.38;;;;;;;-145.06;0.00;60892.56;4854059;28;20037;-90
2022/01/24 09:08:30;;;;;;;3.47;2.53;;;;;;;-145.06;0.00;60892.56;4866163;28;20033;-90
2022/01/24 09:11:09;;;;;;;3.47;2.40;;;;;;;-145.06;0.00;60892.56;4874861;28;20033;-89
2022/01/24 09:13:47;;;;;;;3.35;2.65;;;;;;;-145.06;0.00;60892.56;4865873;28;20372;-89
2022/01/24 09:16:26;;;;;;;4.38;2.28;;;;;;;-145.06;0.00;60892.56;4850794;28;20034;-88
2022/01/24 09:19:06;;;;;;;3.43;2.43;;;;;;;-145.06;0.00;60892.56;4865964;28;20037;-90
2022/01/24 09:21:45;;;;;;;3.45;2.40;;;;;;;-145.06;0.00;60892.56;4849081;28;20026;-89
2022/01/24 09:24:24;;;;;;;3.63;2.27;;;;;;;-145.06;0.00;60892.56;4854423;28;20034;-88
2022/01/24 09:27:05;;;;;;;4.20;2.60;;;;;;;-145.06;0.00;60892.56;4867853;28;20021;-89
2022/01/24 09:29:44;;;;;;;4.05;2.90;;;;;;;-145.06;0.00;60892.56;4871233;28;20041;-89
2022/01/24 09:32:24;;;;;;;4.05;2.60;;;;;;;-145.06;0.00;60892.56;4854977;28;20029;-89
2022/01/24 09:35:05;;;;;;;;;;;;;;;-145.06;0.00;60892.56;4853203;28;20037;-89
2022/01/24 09:37:46;;;;;;;3.70;2.50;;;;;;;-145.06;0.00;60892.56;4858898;28;19913;-89
2022/01/24 09:40:25;;;;;;;4.05;2.47;;;;;;;-145.06;0.00;60892.56;4848084;28;20025;-89
2022/01/24 09:43:05;;;;;;;3.90;2.60;;;;;;;21.08;0.00;60892.56;4856311;28;20059;-89
2022/01/24 09:45:44;;;;;;;4.07;2.42;;;;;;;-145.06;0.00;60892.56;4853779;28;20034;-89
2022/01/24 09:48:24;;;;;;;3.47;2.55;;;;;;;187.52;0.00;60892.56;4855775;28;20068;-90
2022/01/24 09:51:03;;;;;;;4.25;2.58;;;;;;;-145.06;0.00;60892.56;4870166;28;20506;-89
2022/01/24 09:53:42;;;;;;;4.00;2.58;;;;;;;-145.06;0.00;60892.56;4854478;28;20037;-90
2022/01/24 09:56:21;;;;;;;3.70;2.63;;;;;;;2.60;0.00;60892.56;4859266;28;20538;-90
2022/01/24 09:59:01;;;;;;;4.83;3.30;;;;;;;187.52;0.00;60892.56;4861855;28;20029;-91
2022/01/24 10:01:42;;;;;;;5.90;3.60;;;;;;;2.69;0.00;60892.56;4861246;28;20025;-90
2022/01/24 10:04:25;;;;;;;5.65;3.25;;;;;;;-145.06;0.00;60892.56;4851492;28;20112;-89
2022/01/24 10:07:06;;;;;;;6.03;3.65;;;;;;;187.52;0.00;60892.56;4867668;28;20483;-89
2022/01/24 10:09:46;;;;;;;5.20;3.35;;;;;;;-145.06;0.00;60892.56;4861680;28;20025;-89
2022/01/24 10:18:11;;;;;;;5.10;3.00;;;;;;;-145.06;0.00;60892.56;4862124;28;20518;-89
2022/01/24 10:20:50;;;;;;;4.72;3.00;;;;;;;-145.06;0.00;60892.56;4862045;28;20025;-89
2022/01/24 10:23:29;;;;;;;4.78;2.90;;;;;;;-145.06;0.00;60892.56;4860162;28;20037;-90
2022/01/24 10:26:07;;;;;;;4.83;3.07;;;;;;;-145.06;0.00;60892.56;4859018;28;20124;-88
2022/01/24 10:28:47;;;;;;;4.20;2.85;;;;;;;-145.06;0.00;60892.56;4861564;28;20580;-88
2022/01/24 10:31:29;;;;;;;4.50;3.03;;;;;;;-145.06;0.00;60892.56;4858565;28;20329;-89
2022/01/24 10:36:48;;;;;;;4.05;2.83;;;;;;;-145.06;0.00;60892.56;4869955;28;20033;-90
2022/01/24 10:45:16;;;;;;;3.40;2.40;;;;;;;3.94;0.00;60892.56;4866885;28;19916;-89
2022/01/24 10:47:57;;;;;;;4.20;3.08;;;;;;;4.00;0.00;60892.56;4854422;28;20399;-89
2022/01/24 10:50:36;;;;;;;4.00;2.72;;;;;;;-145.06;0.00;60892.56;4869718;28;20479;-88
2022/01/24 10:53:15;;;;;;;4.00;2.65;;;;;;;-145.06;0.00;60892.56;4860470;28;20791;-90
2022/01/24 10:55:55;;;;;;;3.28;2.50;;;;;;;-145.06;0.00;60892.56;4856518;28;20061;-89
2022/01/24 10:58:34;;;;;;;3.35;2.55;;;;;;;-145.06;0.00;60892.56;4869426;28;20041;-89
2022/01/24 11:01:13;;;;;;;3.85;2.65;;;;;;;-145.06;0.00;60892.56;4860279;28;20041;-89
2022/01/24 11:04:13;;;;;;;3.60;2.73;;;;;;;-145.06;0.00;60892.56;4855911;28;20569;-89
2022/01/24 11:06:57;;;;;;;;;;;;;;;-145.06;0.00;60892.56;4865584;28;20268;-89
2022/01/24 11:09:40;;;;;;;2.70;2.10;;;;;;;-145.06;0.00;60892.56;4857925;28;19913;-91
2022/01/24 11:12:23;;;;;;;3.15;2.58;;;;;;;-145.06;0.00;60892.56;4857120;28;20108;-90
2022/01/24 11:15:03;;;;;;;3.38;2.83;;;;;;;-145.06;0.00;60892.56;4848637;28;20037;-89
2022/01/24 11:17:43;;;;;;;2.97;2.50;;;;;;;-145.06;0.00;60892.56;4861827;28;20060;-88
2022/01/24 11:20:29;;;;;;;3.10;2.70;;;;;;;-145.06;0.00;60892.56;4861150;28;20045;-90
2022/01/24 11:23:08;;;;;;;3.67;2.63;;;;;;;-145.06;0.00;60892.56;4856187;28;20033;-89
2022/01/24 11:25:49;;;;;;;3.97;2.95;;;;;;;-145.06;0.00;60892.56;4857493;28;20029;-89
2022/01/24 11:28:28;;;;;;;4.10;2.80;;;;;;;-145.06;0.00;60892.56;4857683;28;20037;-90
2022/01/24 11:31:18;;;;;;;3.05;2.45;;;;;;;-145.06;0.00;60892.56;4856800;28;20116;-89
2022/01/24 11:34:08;;;;;;;2.83;2.50;;;;;;;-145.06;0.00;60892.56;4852587;28;20071;-90
2022/01/24 11:36:47;;;;;;;3.53;2.67;;;;;;;-145.06;0.00;60892.56;4853126;28;20057;-89
2022/01/24 11:39:26;;;;;;;2.87;2.30;;;;;;;-145.06;0.00;60892.56;4858370;28;20120;-90
2022/01/24 11:42:05;;;;;;;2.78;2.50;;;;;;;-145.06;0.00;60892.56;4870876;28;20108;-89
2022/01/24 11:44:47;;;;;;;4.00;2.72;;;;;;;-145.06;0.00;60892.56;4857468;28;20033;-90
2022/01/24 11:47:27;;;;;;;3.40;2.67;;;;;;;-145.06;0.00;60892.56;4858923;28;20111;-91
2022/01/24 11:50:31;;;;;;;3.58;2.78;;;;;;;-145.06;0.00;60892.56;4861275;28;20041;-90
2022/01/24 11:53:22;;;;;;;4.18;3.17;;;;;;;-145.06;0.00;60892.56;4855345;28;20368;-90
2022/01/24 11:56:28;;;;;;;3.20;2.42;;;;;;;-145.06;0.00;60892.56;4846019;28;20037;-89
2022/01/24 11:59:23;;;;;;;2.65;2.17;;;;;;;7.81;0.00;60892.56;4870584;28;20033;-90
2022/01/24 12:02:08;;;;;;;2.15;1.95;;;;;;;7.92;0.00;60892.56;4857584;28;20104;-90
2022/01/24 12:05:14;;;;;;;3.97;2.47;;;;;;;8.04;0.00;60892.56;4851253;28;20475;-89
2022/01/24 12:07:56;;;;;;;3.17;2.33;;;;;;;-145.06;0.00;60892.56;4881945;28;20057;-89
2022/01/24 12:10:41;;;;;;;4.30;2.08;;;;;;;-145.06;0.00;60892.56;4856460;28;20100;-90
2022/01/24 12:13:29;;;;;;;2.20;1.92;;;;;;;-145.06;0.00;60892.56;4857001;28;20085;-90
2022/01/24 12:16:11;;;;;;;2.00;1.58;;;;;;;-145.06;0.00;60892.56;4857107;28;20037;-90
2022/01/24 12:18:52;;;;;;;2.78;2.00;;;;;;;-145.06;0.00;60892.56;4865311;28;20026;-90
2022/01/24 12:21:33;;;;;;;1.80;1.70;;;;;;;-145.06;0.00;60892.56;4888593;28;20033;-89
2022/01/24 12:24:14;;;;;;;2.67;1.90;;;;;;;-145.06;0.00;60892.56;4849345;28;20033;-90
2022/01/24 12:27:04;;;;;;;2.38;1.80;;;;;;;-145.06;0.00;60892.56;4862409;28;20436;-90
2022/01/24 12:29:43;;;;;;;2.20;1.80;;;;;;;-145.06;0.00;60892.56;4851916;28;20029;-91
2022/01/24 12:32:24;;;;;;;1.75;1.42;;;;;;;-145.06;0.00;60892.56;4863134;28;20084;-89
2022/01/24 12:35:27;;;;;;;1.92;1.60;;;;;;;-145.06;0.00;60892.56;4866342;28;20048;-90
2022/01/24 12:38:16;;;;;;;2.63;1.63;;;;;;;-145.06;0.00;60892.56;4869050;28;20029;-89
2022/01/24 12:41:21;;;;;;;1.60;1.50;;;;;;;-145.06;0.00;60892.56;4850743;28;20057;-89
2022/01/24 12:46:44;;;;;;;1.98;1.45;;;;;;;-145.06;0.00;60892.56;4856334;28;20041;-89
2022/01/24 12:49:26;;;;;;;1.80;1.35;;;;;;;-145.06;0.00;60892.56;4862441;28;20033;-90
2022/01/24 12:52:08;;;;;;;1.65;1.52;;;;;;;9.19;0.00;60892.56;4870884;28;20033;-90
2022/01/24 12:54:50;;;;;;;2.20;1.70;;;;;;;-145.06;0.00;60892.56;4856282;28;20372;-89
2022/01/24 12:57:37;;;;;;;1.42;1.33;;;;;;;-145.06;0.00;60892.56;4863827;28;20120;-90
2022/01/24 13:00:18;;;;;;;2.60;1.50;;;;;;;-145.06;0.00;60892.56;4863365;28;20033;-89
2022/01/24 13:02:58;;;;;;;1.92;1.48;;;;;;;-145.06;0.00;60892.56;4856790;28;20029;-90
2022/01/24 13:05:38;;;;;;;1.63;1.53;;;;;;;21.08;0.00;60892.56;4856365;28;20037;-89
2022/01/24 13:08:17;;;;;;;2.10;1.80;;;;;;;-145.06;0.00;60892.56;4868065;28;20037;-89
2022/01/24 13:10:57;;;;;;;1.65;1.55;;;;;;;-145.06;0.00;60892.56;4854266;28;20491;-89
2022/01/24 13:13:40;;;;;;;2.00;1.60;;;;;;;-145.06;0.00;60892.56;4860244;28;20029;-89
2022/01/24 13:22:18;;;;;;;2.60;1.98;;;;;;;8.57;0.00;60892.56;4862387;28;20116;-90
2022/01/24 13:25:17;;;;;;;2.42;1.98;;;;;;;-145.06;0.00;60892.56;4854193;28;20037;-89
2022/01/24 13:27:58;;;;;;;2.03;1.67;;;;;;;-145.06;0.00;60892.56;4847742;28;20033;-90
2022/01/24 13:30:40;;;;;;;2.75;1.80;;;;;;;-145.06;0.00;60892.56;4858531;28;20025;-89
2022/01/24 13:33:23;;;;;;;2.45;2.00;;;;;;;-145.06;0.00;60892.56;4854628;28;20369;-89
2022/01/24 13:36:07;;;;;;;2.05;1.52;;;;;;;-145.06;0.00;60892.56;4867080;28;20041;-89
2022/01/24 13:38:48;;;;;;;2.33;1.50;;;;;;;8.73;0.00;60892.56;4853437;28;20112;-90
2022/01/24 13:41:28;;;;;;;3.05;1.33;;;;;;;-145.06;0.00;60892.56;4854790;28;20522;-90
2022/01/24 13:44:08;;;;;;;1.90;1.40;;;;;;;-145.06;0.00;60892.56;4854611;28;20117;-90
2022/01/24 13:46:48;;;;;;;1.70;1.42;;;;;;;8.08;0.00;60892.56;4853596;28;20539;-89
2022/01/24 13:49:28;;;;;;;1.80;1.70;;;;;;;-145.06;0.00;60892.56;4856051;28;20030;-89
2022/01/24 13:52:12;;;;;;;1.77;1.48;;;;;;;-145.06;0.00;60892.56;4860555;28;20036;-90
2022/01/24 13:54:51;;;;;;;1.92;1.60;;;;;;;-145.06;0.00;60892.56;4850927;28;20034;-90
2022/01/24 13:57:30;;;;;;;2.10;1.87;;;;;;;7.91;0.00;60892.56;4873329;28;20037;-89
2022/01/24 14:00:09;;;;;;;1.93;1.50;;;;;;;7.82;0.00;60892.56;4843744;28;20029;-88
2022/01/24 14:02:50;;;;;;;1.70;1.30;;;;;;;7.92;0.00;60892.56;4853472;28;20100;-89
2022/01/24 14:05:29;;;;;;;2.25;1.60;;;;;;;-145.06;0.00;60892.56;4859689;28;20048;-90
2022/01/24 14:08:16;;;;;;;2.40;1.57;;;;;;;-145.06;0.00;60892.56;4858953;28;20041;-91
2022/01/24 14:11:09;;;;;;;1.83;1.60;;;;;;;-145.06;0.00;60892.56;4835488;28;20030;-90
2022/01/24 14:14:00;;;;;;;2.45;1.80;;;;;;;7.60;0.00;60892.56;4857915;28;20041;-89
2022/01/24 14:17:17;;;;;;;2.13;1.83;;;;;;;-145.06;0.00;60892.56;4842031;28;20129;-88
2022/01/24 14:19:59;;;;;;;1.70;1.60;;;;;;;7.76;0.00;60892.56;4863650;28;20041;-90
2022/01/24 14:22:46;;;;;;;2.17;1.70;;;;;;;-145.06;0.00;60892.56;4850887;28;20033;-91
2022/01/24 14:25:31;;;;;;;2.33;1.70;;;;;;;-145.06;0.00;60892.56;4864682;28;20040;-89
2022/01/24 14:28:11;;;;;;;1.67;1.58;;;;;;;-145.06;0.00;60892.56;4843110;28;20464;-89
2022/01/24 14:30:54;;;;;;;1.98;1.58;;;;;;;-145.06;0.00;60892.56;4856734;28;20068;-90
2022/01/24 14:33:34;;;;;;;7.43;3.55;;;;;;;-145.06;0.00;60892.56;4855377;28;20041;-90
2022/01/24 14:36:15;;;;;;;;;;;;;;;-145.06;0.00;60892.56;4859403;28;20033;-89